Time;durP1;ratioP1;P1;durP2;ratioP2;P2;SDS_P1;SDS_P2;PMS_P1;PMS_P2;Temp;Humidity;BMP_temperature;BMP_pressure;BME280_temperature;BME280_humidity;BME280_pressure;Samples;Min_cycle;Max_cycle;Signal;HPM_P1;HPM_P2
2021/12/05 00:17:23;;;;;;;7.50;6.88;;;1.90;99.90;;;;;;4977651;28;20271;-78
2021/12/05 00:20:09;;;;;;;7.47;6.78;;;1.90;99.90;;;;;;4972777;28;20728;-78
2021/12/05 00:22:40;;;;;;;7.80;7.00;;;1.90;99.90;;;;;;4993417;28;20243;-78
2021/12/05 00:25:11;;;;;;;7.35;6.65;;;1.80;99.90;;;;;;4955033;28;20236;-79
2021/12/05 00:27:45;;;;;;;7.40;6.80;;;1.80;99.90;;;;;;4969644;28;20237;-81
2021/12/05 00:30:34;;;;;;;7.38;6.78;;;1.80;99.90;;;;;;4976983;28;20600;-79
2021/12/05 00:33:25;;;;;;;6.90;6.30;;;1.90;99.90;;;;;;4989145;28;20279;-78
2021/12/05 00:41:52;;;;;;;8.77;8.02;;;1.80;99.90;;;;;;4974687;28;20271;-74
2021/12/05 00:47:34;;;;;;;7.25;6.63;;;1.70;99.90;;;;;;4969030;28;20228;-74
2021/12/05 00:50:31;;;;;;;8.40;7.70;;;1.70;99.90;;;;;;4969218;28;20232;-74
2021/12/05 00:53:24;;;;;;;7.85;7.10;;;1.80;99.90;;;;;;4963315;28;21485;-75
2021/12/05 00:56:01;;;;;;;7.30;6.70;;;1.80;99.90;;;;;;4949725;28;20233;-73
2021/12/05 01:01:36;;;;;;;7.80;7.10;;;1.90;99.90;;;;;;4963560;28;20707;-73
2021/12/05 01:09:51;;;;;;;7.85;7.18;;;2.00;99.90;;;;;;4943006;28;20239;-73
2021/12/05 01:15:06;;;;;;;8.00;7.25;;;2.00;99.90;;;;;;4956050;28;20232;-73
2021/12/05 01:17:42;;;;;;;7.53;6.93;;;2.00;99.90;;;;;;4972007;28;20296;-74
2021/12/05 01:20:14;;;;;;;9.32;8.50;;;1.90;99.90;;;;;;4965116;28;20244;-73
2021/12/05 01:22:46;;;;;;;8.95;8.15;;;1.90;99.90;;;;;;4967956;28;20594;-72
2021/12/05 01:25:29;;;;;;;9.65;8.88;;;1.80;99.90;;;;;;4974114;28;20256;-72
2021/12/05 01:28:02;;;;;;;8.57;7.80;;;1.80;99.90;;;;;;4959523;28;20226;-74
2021/12/05 01:30:38;;;;;;;8.45;7.72;;;1.80;99.90;;;;;;4969898;28;20233;-72
2021/12/05 01:33:13;;;;;;;7.82;7.13;;;1.70;99.90;;;;;;4968782;28;20225;-76
2021/12/05 01:36:00;;;;;;;7.93;7.28;;;1.70;99.90;;;;;;4966438;28;20236;-75
2021/12/05 01:38:44;;;;;;;8.38;7.60;;;1.80;99.90;;;;;;4957498;28;20577;-76
2021/12/05 01:41:46;;;;;;;9.27;8.40;;;1.90;99.90;;;;;;4954747;28;20324;-72
2021/12/05 01:53:03;;;;;;;9.48;8.57;;;1.90;99.90;;;;;;4962617;28;20249;-73
2021/12/05 01:55:54;;;;;;;7.88;7.20;;;1.80;99.90;;;;;;4963465;28;20344;-73
2021/12/05 01:58:53;;;;;;;8.40;7.70;;;1.70;99.90;;;;;;4941047;28;20662;-72
2021/12/05 02:32:21;;;;;;;8.60;7.82;;;1.70;99.90;;;;;;4954710;28;20228;-72
2021/12/05 02:34:56;;;;;;;8.57;7.78;;;1.80;99.90;;;;;;4959008;28;20230;-75
2021/12/05 02:37:49;;;;;;;8.27;7.57;;;1.90;99.90;;;;;;4961348;28;20229;-75
2021/12/05 02:40:29;;;;;;;8.68;7.97;;;1.90;99.90;;;;;;4970166;28;20229;-72
2021/12/05 02:43:03;;;;;;;9.20;8.40;;;1.90;99.90;;;;;;4968700;28;20256;-73
2021/12/05 02:45:32;;;;;;;7.35;6.75;;;1.80;99.90;;;;;;4966327;28;20233;-75
2021/12/05 02:47:59;;;;;;;9.38;8.57;;;1.80;99.90;;;;;;4966377;28;20331;-73
2021/12/05 02:50:30;;;;;;;8.55;7.95;;;1.80;99.90;;;;;;4965662;28;20333;-74
2021/12/05 02:53:07;;;;;;;8.73;7.95;;;1.80;99.90;;;;;;4961228;28;20708;-73
2021/12/05 02:55:38;;;;;;;8.30;7.60;;;1.80;99.90;;;;;;4968249;28;20238;-72
2021/12/05 02:58:15;;;;;;;8.48;7.78;;;1.70;99.90;;;;;;4967345;28;20236;-73
2021/12/05 03:00:47;;;;;;;8.90;8.18;;;1.70;99.90;;;;;;4960301;28;20967;-72
2021/12/05 03:03:19;;;;;;;8.95;8.23;;;1.70;99.90;;;;;;4954206;28;20228;-73
2021/12/05 03:05:51;;;;;;;8.27;7.57;;;1.60;99.90;;;;;;4965158;28;20241;-72
2021/12/05 03:08:20;;;;;;;9.25;8.40;;;1.60;99.90;;;;;;4961196;28;20285;-72
2021/12/05 03:10:47;;;;;;;9.50;8.65;;;1.60;99.90;;;;;;4960379;28;20225;-73
2021/12/05 03:13:14;;;;;;;9.32;8.10;;;1.50;99.90;;;;;;4962373;28;20226;-72
2021/12/05 03:15:42;;;;;;;9.52;8.73;;;1.50;99.90;;;;;;4958586;28;20229;-72
2021/12/05 03:18:09;;;;;;;9.18;8.38;;;1.50;99.90;;;;;;4967187;28;21765;-72
2021/12/05 03:20:37;;;;;;;9.55;8.68;;;1.50;99.90;;;;;;4954323;28;20226;-74
2021/12/05 03:23:04;;;;;;;9.70;8.90;;;1.50;99.90;;;;;;4949549;28;20229;-72
2021/12/05 03:25:32;;;;;;;9.05;8.35;;;1.40;99.90;;;;;;4961785;28;20268;-73
2021/12/05 03:28:00;;;;;;;9.43;8.60;;;1.50;99.90;;;;;;4967452;28;20613;-74
2021/12/05 03:30:28;;;;;;;9.60;8.70;;;1.50;99.90;;;;;;4957323;28;20230;-74
2021/12/05 03:32:57;;;;;;;9.73;8.82;;;1.40;99.90;;;;;;4963622;28;20238;-74
2021/12/05 03:35:28;;;;;;;9.10;8.38;;;1.30;99.90;;;;;;4950683;28;20240;-72
2021/12/05 03:37:56;;;;;;;9.20;8.38;;;1.20;99.90;;;;;;4961126;28;20244;-73
2021/12/05 03:40:27;;;;;;;9.25;8.45;;;1.20;99.90;;;;;;4962581;28;20246;-72
2021/12/05 03:42:58;;;;;;;8.70;8.00;;;1.20;99.90;;;;;;4956521;28;20235;-75
2021/12/05 03:45:30;;;;;;;8.40;7.70;;;1.30;99.90;;;;;;4968075;28;20237;-73
2021/12/05 03:47:58;;;;;;;7.82;7.15;;;1.30;99.90;;;;;;4957178;28;20700;-73
2021/12/05 03:50:26;;;;;;;8.02;7.43;;;1.40;99.90;;;;;;4963446;28;20222;-73
2021/12/05 03:52:54;;;;;;;7.93;7.22;;;1.50;99.90;;;;;;4957327;28;20606;-73
2021/12/05 03:55:22;;;;;;;7.45;6.85;;;1.50;99.90;;;;;;4958466;28;20642;-72
2021/12/05 03:57:49;;;;;;;7.63;7.03;;;1.60;99.90;;;;;;4964430;28;20229;-76
2021/12/05 04:00:21;;;;;;;9.13;8.32;;;1.60;99.90;;;;;;4963590;28;20218;-72
2021/12/05 04:02:51;;;;;;;7.63;7.03;;;1.60;99.90;;;;;;4958867;28;20251;-73
2021/12/05 04:05:18;;;;;;;7.18;6.55;;;1.60;99.90;;;;;;4948083;28;20226;-73
2021/12/05 04:07:46;;;;;;;6.72;6.22;;;1.70;99.90;;;;;;4955256;28;20260;-73
2021/12/05 04:10:14;;;;;;;6.80;6.30;;;1.70;99.90;;;;;;4949684;28;20239;-74
2021/12/05 04:12:41;;;;;;;7.38;6.85;;;1.70;99.90;;;;;;4963445;28;20224;-73
2021/12/05 04:15:10;;;;;;;6.88;6.35;;;1.60;99.90;;;;;;4955922;28;20234;-73
2021/12/05 04:17:40;;;;;;;6.50;6.00;;;1.50;99.90;;;;;;4961214;28;20252;-73
2021/12/05 04:20:12;;;;;;;5.97;5.50;;;1.50;99.90;;;;;;4957983;28;20505;-71
2021/12/05 04:22:40;;;;;;;6.57;6.07;;;1.50;99.90;;;;;;4958720;28;20255;-73
2021/12/05 04:25:10;;;;;;;7.60;6.90;;;1.50;99.90;;;;;;4965325;28;20237;-74
2021/12/05 04:27:38;;;;;;;6.60;6.10;;;1.50;99.90;;;;;;4963744;28;20230;-74
2021/12/05 04:30:06;;;;;;;6.47;6.03;;;1.50;99.90;;;;;;4961751;28;20232;-73
2021/12/05 04:32:33;;;;;;;7.47;6.88;;;1.40;99.90;;;;;;4959375;28;20277;-75
2021/12/05 04:35:02;;;;;;;113.40;12.90;;;1.30;99.90;;;;;;4950337;28;20232;-73
2021/12/05 04:37:30;;;;;;;432.92;25.55;;;1.30;99.90;;;;;;4961305;28;20738;-74
2021/12/05 04:39:57;;;;;;;70.07;14.18;;;1.00;99.90;;;;;;4957799;28;20709;-73
2021/12/05 04:42:24;;;;;;;10.02;9.23;;;0.90;99.90;;;;;;4959028;28;20227;-74
2021/12/05 04:44:51;;;;;;;8.88;8.18;;;0.80;99.90;;;;;;4952099;28;20238;-73
2021/12/05 04:47:19;;;;;;;10.05;9.15;;;0.80;99.90;;;;;;4931035;28;20233;-72
2021/12/05 04:49:46;;;;;;;7.85;7.25;;;0.80;99.90;;;;;;4966335;28;20222;-73
2021/12/05 04:52:16;;;;;;;8.80;8.10;;;0.90;99.90;;;;;;4957751;28;20260;-75
2021/12/05 04:54:43;;;;;;;8.32;7.68;;;1.00;99.90;;;;;;4955215;28;20604;-73
2021/12/05 04:57:10;;;;;;;7.90;7.30;;;1.10;99.90;;;;;;4948701;28;20309;-73
2021/12/05 04:59:44;;;;;;;7.65;7.05;;;1.10;99.90;;;;;;4964617;28;20233;-73
2021/12/05 05:02:11;;;;;;;7.05;6.45;;;1.10;99.90;;;;;;4958999;28;20233;-73
2021/12/05 05:04:45;;;;;;;7.60;7.00;;;1.20;99.90;;;;;;4963550;28;20241;-73
2021/12/05 05:07:21;;;;;;;7.43;6.93;;;1.20;99.90;;;;;;4965906;28;20263;-73
2021/12/05 05:09:51;;;;;;;7.63;7.03;;;1.30;99.90;;;;;;4962618;28;20258;-74
2021/12/05 05:12:18;;;;;;;6.15;5.70;;;1.40;99.90;;;;;;4968320;28;20225;-73
2021/12/05 05:14:46;;;;;;;6.15;5.65;;;1.40;99.90;;;;;;4964026;28;20597;-74
2021/12/05 05:17:14;;;;;;;6.50;6.00;;;1.40;99.90;;;;;;4945564;28;20235;-73
2021/12/05 05:19:45;;;;;;;6.57;6.18;;;1.50;99.90;;;;;;4958475;28;20232;-73
2021/12/05 05:22:23;;;;;;;7.30;6.80;;;1.50;99.90;;;;;;4949549;28;20579;-72
2021/12/05 05:27:56;;;;;;;8.20;7.60;;;1.50;99.90;;;;;;4941043;28;20222;-73
2021/12/05 05:44:34;;;;;;;10.80;9.90;;;1.10;99.90;;;;;;4960701;28;20221;-73
2021/12/05 05:47:06;;;;;;;10.88;9.98;;;1.10;99.90;;;;;;4967410;28;20229;-73
2021/12/05 05:49:50;;;;;;;9.98;9.18;;;1.00;99.90;;;;;;4957448;28;20222;-74
2021/12/05 05:52:21;;;;;;;10.88;10.00;;;1.00;99.90;;;;;;4949171;28;20231;-73
2021/12/05 05:54:50;;;;;;;9.63;8.93;;;1.00;99.90;;;;;;4953553;28;20230;-73
2021/12/05 05:57:24;;;;;;;9.80;8.93;;;1.00;99.90;;;;;;4958973;28;20225;-73
2021/12/05 06:00:00;;;;;;;8.80;8.07;;;1.10;99.90;;;;;;4946556;28;20263;-75
2021/12/05 06:05:13;;;;;;;9.38;8.57;;;1.10;99.90;;;;;;4955317;28;20731;-74
2021/12/05 06:07:44;;;;;;;7.90;7.30;;;1.20;99.90;;;;;;4943968;28;20605;-73
2021/12/05 06:10:12;;;;;;;7.30;6.80;;;1.20;99.90;;;;;;4960844;28;20233;-74
2021/12/05 06:12:42;;;;;;;8.00;7.40;;;1.30;99.90;;;;;;4953199;28;20242;-74
2021/12/05 06:15:12;;;;;;;7.22;6.63;;;1.30;99.90;;;;;;4943961;28;20244;-73
2021/12/05 06:17:41;;;;;;;6.78;6.28;;;1.40;99.90;;;;;;4950950;28;20603;-75
2021/12/05 06:20:10;;;;;;;7.30;6.70;;;1.50;99.90;;;;;;4961548;28;20700;-72
2021/12/05 06:22:37;;;;;;;7.53;6.93;;;1.50;99.90;;;;;;4953553;28;20218;-73
2021/12/05 06:25:06;;;;;;;7.55;6.90;;;1.60;99.90;;;;;;4960945;28;20600;-74
2021/12/05 06:27:33;;;;;;;7.28;6.78;;;1.60;99.90;;;;;;4957891;28;20230;-74
2021/12/05 06:30:09;;;;;;;7.03;6.53;;;1.60;99.90;;;;;;4941005;28;20222;-73
2021/12/05 06:38:07;;;;;;;6.95;6.45;;;1.70;99.90;;;;;;4978179;28;20222;-77
2021/12/05 06:46:03;;;;;;;6.78;6.28;;;1.60;99.90;;;;;;4988968;28;20532;-75
2021/12/05 06:48:30;;;;;;;5.82;5.43;;;1.70;99.90;;;;;;4989700;28;20314;-77
2021/12/05 06:50:58;;;;;;;6.47;6.00;;;1.70;99.90;;;;;;5001728;28;20235;-76
2021/12/05 06:53:25;;;;;;;24.75;9.50;;;1.70;99.90;;;;;;5005880;28;20247;-77
2021/12/05 06:55:52;;;;;;;66.15;12.63;;;1.60;99.90;;;;;;5007919;28;20255;-76
2021/12/05 06:58:20;;;;;;;26.05;10.05;;;1.40;99.90;;;;;;5004740;28;20242;-75
2021/12/05 07:00:47;;;;;;;27.20;10.32;;;1.20;99.90;;;;;;5008967;28;20310;-77
2021/12/05 07:03:15;;;;;;;10.90;9.90;;;1.10;99.90;;;;;;5002783;28;20243;-76
2021/12/05 07:05:49;;;;;;;11.23;10.20;;;1.00;99.90;;;;;;5005036;28;20232;-75
2021/12/05 07:08:16;;;;;;;10.52;9.63;;;1.00;99.90;;;;;;5008197;28;20235;-75
2021/12/05 07:10:50;;;;;;;9.52;8.73;;;1.10;99.90;;;;;;5005620;28;20228;-76
2021/12/05 07:13:55;;;;;;;11.30;10.40;;;1.20;99.90;;;;;;5005762;28;20223;-77
2021/12/05 07:16:28;;;;;;;11.18;10.25;;;1.20;99.90;;;;;;5003324;28;20642;-76
2021/12/05 07:19:12;;;;;;;12.60;11.50;;;1.20;99.90;;;;;;5003506;28;20270;-75
2021/12/05 07:21:46;;;;;;;13.07;11.88;;;1.10;99.90;;;;;;5010782;28;20243;-76
2021/12/05 07:24:25;;;;;;;11.93;10.93;;;1.00;99.90;;;;;;5008656;28;20231;-75
2021/12/05 07:27:12;;;;;;;9.73;8.93;;;1.00;99.90;;;;;;5005451;28;20223;-75
2021/12/05 07:40:41;;;;;;;12.13;11.13;;;1.00;99.90;;;;;;5005055;28;20298;-76
2021/12/05 07:43:11;;;;;;;10.30;9.48;;;1.00;99.90;;;;;;5008389;28;20224;-74
2021/12/05 07:45:43;;;;;;;9.93;9.02;;;1.10;99.90;;;;;;5007500;28;20240;-75
2021/12/05 07:48:16;;;;;;;9.63;8.82;;;1.20;99.90;;;;;;5007066;28;20255;-75
2021/12/05 07:50:52;;;;;;;7.57;6.97;;;1.30;99.90;;;;;;5008533;28;20236;-75
2021/12/05 07:53:25;;;;;;;8.10;7.50;;;1.30;99.90;;;;;;5004881;28;20231;-76
2021/12/05 07:55:56;;;;;;;7.32;6.75;;;1.40;99.90;;;;;;5001177;28;20232;-74
2021/12/05 07:58:46;;;;;;;6.50;6.00;;;1.40;99.90;;;;;;5003068;28;20228;-76
2021/12/05 08:14:21;;;;;;;6.53;6.03;;;1.50;99.90;;;;;;5009302;28;20239;-75
2021/12/05 08:15:14;;;;;;;7.10;6.45;;;1.90;99.90;;;;;;5009697;28;20307;-76
2021/12/05 08:17:49;;;;;;;7.28;6.78;;;1.90;99.90;;;;;;5002752;28;20607;-76
2021/12/05 08:20:16;;;;;;;6.78;6.28;;;1.90;99.90;;;;;;5006674;28;20232;-75
2021/12/05 08:22:45;;;;;;;6.72;6.22;;;2.00;99.90;;;;;;5007699;28;20773;-75
2021/12/05 08:25:13;;;;;;;6.40;6.00;;;2.00;99.90;;;;;;5004713;28;20250;-76
2021/12/05 08:27:46;;;;;;;5.57;5.18;;;2.00;99.90;;;;;;4999821;28;20235;-75
2021/12/05 08:30:21;;;;;;;5.65;5.25;;;2.00;99.90;;;;;;5001564;28;20310;-76
2021/12/05 08:33:07;;;;;;;5.43;5.03;;;2.00;99.90;;;;;;4999764;28;20224;-76
2021/12/05 08:36:00;;;;;;;7.70;7.10;;;2.10;99.90;;;;;;4999598;28;20693;-76
2021/12/05 08:39:14;;;;;;;8.30;7.63;;;2.10;99.90;;;;;;4998399;28;20233;-74
2021/12/05 09:23:49;;;;;;;6.90;6.40;;;2.80;99.90;;;;;;5064482;28;20434;-75
2021/12/05 09:26:37;;;;;;;6.22;5.72;;;2.80;99.90;;;;;;5051373;28;20272;-75
2021/12/05 10:02:45;;;;;;;6.32;5.82;;;3.70;99.90;;;;;;5044833;28;20230;-76
2021/12/05 10:08:29;;;;;;;5.20;4.80;;;4.00;99.90;;;;;;5045391;28;20789;-74
2021/12/05 10:11:13;;;;;;;8.60;7.90;;;4.20;99.90;;;;;;5039855;28;20717;-75
2021/12/05 10:13:55;;;;;;;7.97;7.38;;;4.30;99.90;;;;;;5044242;28;20234;-75
2021/12/05 10:16:48;;;;;;;5.90;5.40;;;4.30;99.90;;;;;;5032867;28;20211;-76
2021/12/05 10:38:40;;;;;;;14.15;12.77;;;3.80;99.90;;;;;;5047988;28;20355;-75
2021/12/05 10:44:07;;;;;;;14.32;12.07;;;3.70;99.90;;;;;;4999302;28;20301;-76
2021/12/05 10:46:36;;;;;;;28.23;12.43;;;3.60;99.90;;;;;;5050339;28;20561;-75
2021/12/05 10:49:06;;;;;;;37.65;13.93;;;3.50;99.90;;;;;;5046414;28;20632;-75
2021/12/05 10:51:37;;;;;;;47.67;12.82;;;3.40;99.90;;;;;;5037082;28;20305;-76
2021/12/05 10:54:07;;;;;;;21.08;12.82;;;3.30;99.90;;;;;;5052132;28;20218;-76
2021/12/05 10:56:37;;;;;;;12.00;10.90;;;3.20;99.90;;;;;;5042395;28;20329;-78
2021/12/05 10:59:07;;;;;;;13.20;12.00;;;3.30;99.90;;;;;;5034439;28;20225;-74
2021/12/05 11:01:38;;;;;;;10.82;9.93;;;3.30;99.90;;;;;;5042300;28;20231;-75
2021/12/05 11:04:07;;;;;;;12.75;11.65;;;3.40;99.90;;;;;;5051495;28;20229;-76
2021/12/05 11:06:55;;;;;;;11.63;10.52;;;3.60;99.90;;;;;;5050995;28;20676;-75
2021/12/05 11:09:25;;;;;;;12.55;11.40;;;3.70;99.90;;;;;;5048600;28;20240;-75
2021/12/05 11:11:57;;;;;;;16.15;14.55;;;3.80;99.90;;;;;;5041537;28;20631;-75
2021/12/05 11:14:27;;;;;;;13.07;11.98;;;3.90;99.90;;;;;;5044168;28;20242;-75
2021/12/05 11:16:58;;;;;;;14.55;13.25;;;4.00;99.90;;;;;;5035031;28;20239;-76
2021/12/05 11:19:30;;;;;;;11.90;10.80;;;4.10;99.90;;;;;;5050547;28;20232;-76
2021/12/05 11:22:02;;;;;;;13.30;12.05;;;4.10;99.90;;;;;;5035312;28;20215;-75
2021/12/05 11:24:33;;;;;;;10.93;9.85;;;4.10;99.90;;;;;;5026728;28;20218;-76
2021/12/05 11:27:15;;;;;;;11.27;10.23;;;4.20;99.90;;;;;;5038378;28;20238;-76
2021/12/05 11:29:49;;;;;;;10.32;9.38;;;4.20;99.90;;;;;;5035126;28;20256;-75
2021/12/05 11:32:19;;;;;;;12.13;10.93;;;4.20;99.90;;;;;;5033215;28;20226;-75
2021/12/05 11:34:48;;;;;;;11.18;10.07;;;4.20;99.90;;;;;;5038604;28;20231;-75
2021/12/05 11:37:16;;;;;;;10.38;9.38;;;4.20;99.90;;;;;;5030863;28;20230;-75
2021/12/05 11:39:43;;;;;;;10.07;9.07;;;4.30;99.90;;;;;;5042769;28;20230;-75
2021/12/05 11:42:19;;;;;;;9.73;8.82;;;4.40;99.90;;;;;;5036083;28;20242;-73
2021/12/05 11:44:49;;;;;;;10.00;9.10;;;4.50;99.90;;;;;;5037417;28;20229;-75
2021/12/05 11:47:18;;;;;;;10.93;9.77;;;4.60;99.90;;;;;;5041894;28;20309;-76
2021/12/05 11:49:46;;;;;;;10.73;9.93;;;4.50;99.90;;;;;;5034914;28;20230;-75
2021/12/05 11:52:13;;;;;;;16.75;14.57;;;4.50;99.90;;;;;;5039391;28;20235;-75
2021/12/05 11:54:42;;;;;;;11.77;10.68;;;4.40;99.90;;;;;;5037862;28;20342;-75
2021/12/05 11:57:12;;;;;;;9.68;8.85;;;4.30;99.90;;;;;;5035077;28;20230;-75
2021/12/05 11:59:43;;;;;;;11.32;10.23;;;4.30;99.90;;;;;;5035097;28;20234;-75
2021/12/05 12:02:15;;;;;;;10.02;9.23;;;4.20;99.90;;;;;;5031342;28;20233;-74
2021/12/05 12:04:49;;;;;;;10.02;9.23;;;4.20;99.90;;;;;;5032808;28;20245;-75
2021/12/05 12:07:23;;;;;;;9.95;9.02;;;4.10;99.90;;;;;;5053164;28;20261;-74
2021/12/05 12:09:53;;;;;;;10.13;9.27;;;4.10;99.90;;;;;;5036884;28;20222;-75
2021/12/05 12:12:21;;;;;;;10.25;9.35;;;4.10;99.90;;;;;;5037605;28;20316;-73
2021/12/05 12:14:50;;;;;;;10.13;9.23;;;4.10;99.90;;;;;;5054935;28;20341;-74
2021/12/05 12:17:17;;;;;;;9.82;9.02;;;4.20;99.90;;;;;;5047839;28;20316;-76
2021/12/05 12:19:47;;;;;;;13.27;11.98;;;4.20;99.90;;;;;;5037987;28;20301;-75
2021/12/05 12:22:16;;;;;;;17.10;14.70;;;4.20;99.90;;;;;;5030536;28;20523;-73
2021/12/05 12:24:43;;;;;;;14.93;13.38;;;4.30;99.90;;;;;;5030951;28;20249;-73
2021/12/05 12:27:12;;;;;;;12.98;11.65;;;4.30;99.90;;;;;;5040101;28;20230;-75
2021/12/05 12:29:40;;;;;;;11.82;10.68;;;4.30;99.90;;;;;;5036851;28;20222;-74
2021/12/05 12:32:18;;;;;;;9.70;8.80;;;4.40;99.90;;;;;;5034076;28;20230;-72
2021/12/05 12:34:45;;;;;;;9.90;9.00;;;4.50;99.90;;;;;;5043034;28;20223;-74
2021/12/05 12:37:15;;;;;;;10.25;9.35;;;4.60;99.90;;;;;;5026250;28;20239;-74
2021/12/05 12:39:48;;;;;;;11.50;10.50;;;4.70;99.90;;;;;;5027982;28;20230;-74
2021/12/05 12:42:19;;;;;;;10.40;9.50;;;4.70;99.90;;;;;;5037526;22;20316;-71
2021/12/05 12:45:23;;;;;;;11.07;10.18;;;4.70;99.90;;;;;;5023552;28;20222;-72
2021/12/05 12:47:55;;;;;;;10.10;9.20;;;4.80;99.90;;;;;;4943597;28;20731;-71
2021/12/05 12:50:50;;;;;;;9.63;8.73;;;4.80;99.90;;;;;;4950136;28;20303;-74
2021/12/05 12:53:22;;;;;;;8.95;8.15;;;4.80;99.90;;;;;;4983414;28;20227;-73
2021/12/05 12:55:56;;;;;;;9.30;8.18;;;4.90;99.90;;;;;;4997482;28;20235;-71
2021/12/05 12:58:44;;;;;;;12.68;9.75;;;5.00;99.90;;;;;;5000973;28;20597;-73
2021/12/05 13:01:35;;;;;;;9.05;8.18;;;5.00;99.90;;;;;;5005983;28;20289;-73
2021/12/05 13:12:52;;;;;;;8.45;7.65;;;6.10;99.90;;;;;;4998305;28;20856;-71
2021/12/05 13:15:27;;;;;;;7.30;6.68;;;6.40;99.90;;;;;;4995156;28;20224;-68
2021/12/05 13:17:57;;;;;;;7.43;6.80;;;6.60;99.90;;;;;;4999286;28;20231;-69
2021/12/05 13:20:29;;;;;;;7.38;6.68;;;6.80;99.90;;;;;;4986905;28;20236;-71
2021/12/05 13:23:08;;;;;;;6.38;5.88;;;7.00;99.90;;;;;;4991790;28;20949;-69
2021/12/05 13:25:56;;;;;;;5.57;5.18;;;7.20;99.90;;;;;;4993810;28;20753;-73
2021/12/05 13:28:35;;;;;;;6.38;5.88;;;7.40;99.90;;;;;;4978339;28;20227;-71
2021/12/05 13:31:31;;;;;;;6.25;5.75;;;7.60;99.90;;;;;;4994489;28;20702;-70
2021/12/05 13:34:17;;;;;;;7.20;5.70;;;7.50;99.90;;;;;;4996212;28;20244;-71
2021/12/05 13:36:49;;;;;;;5.70;5.20;;;7.50;99.90;;;;;;4993883;28;20235;-70
2021/12/05 13:39:38;;;;;;;5.97;5.53;;;7.40;99.90;;;;;;4998450;28;20977;-69
2021/12/05 13:42:09;;;;;;;6.10;5.60;;;7.40;99.90;;;;;;4992310;28;20223;-70
2021/12/05 13:45:21;;;;;;;6.85;6.15;;;7.30;99.90;;;;;;5007681;28;20235;-70
2021/12/05 13:48:13;;;;;;;6.30;5.80;;;7.10;99.90;;;;;;5002933;28;20317;-70
2021/12/05 13:50:46;;;;;;;6.55;6.05;;;7.00;99.90;;;;;;5006185;28;20236;-69
2021/12/05 13:53:21;;;;;;;5.28;4.88;;;6.90;99.90;;;;;;5006875;28;20740;-70
2021/12/05 13:55:59;;;;;;;6.78;6.18;;;6.60;99.90;;;;;;4998366;28;20510;-70
2021/12/05 13:58:29;;;;;;;6.13;5.63;;;6.40;99.90;;;;;;5007996;28;20219;-71
2021/12/05 14:00:59;;;;;;;6.38;5.88;;;6.30;99.90;;;;;;5011642;28;20372;-68
2021/12/05 14:03:48;;;;;;;6.22;5.68;;;6.30;99.90;;;;;;4992950;28;20232;-71
2021/12/05 14:06:53;;;;;;;7.22;6.63;;;6.20;99.90;;;;;;4994203;28;20473;-70
2021/12/05 14:09:31;;;;;;;7.05;6.45;;;6.20;99.90;;;;;;4991216;28;20228;-73
2021/12/05 14:12:02;;;;;;;7.57;6.88;;;6.10;99.90;;;;;;4994641;28;20247;-71
2021/12/05 14:14:34;;;;;;;7.43;6.82;;;6.10;99.90;;;;;;4994418;28;20737;-72
2021/12/05 14:17:05;;;;;;;6.90;6.30;;;5.90;99.90;;;;;;4993432;28;20286;-71
2021/12/05 14:19:34;;;;;;;6.40;5.80;;;5.90;99.90;;;;;;4994146;28;20220;-70
2021/12/05 14:22:05;;;;;;;5.15;4.72;;;5.90;99.90;;;;;;4995965;28;20683;-70
2021/12/05 14:24:37;;;;;;;5.60;5.20;;;6.00;99.90;;;;;;4992226;28;20730;-68
2021/12/05 14:27:08;;;;;;;6.00;5.43;;;6.00;99.90;;;;;;4995836;28;20725;-71
2021/12/05 14:29:39;;;;;;;6.80;6.28;;;5.90;99.90;;;;;;4994641;28;20219;-70
2021/12/05 14:32:09;;;;;;;6.00;5.53;;;5.90;99.90;;;;;;4996214;28;20306;-71
2021/12/05 14:34:38;;;;;;;7.45;6.75;;;5.90;99.90;;;;;;4992968;28;20228;-70
2021/12/05 14:37:08;;;;;;;6.07;5.57;;;5.70;99.90;;;;;;4995750;28;20235;-70
2021/12/05 14:39:39;;;;;;;6.68;6.05;;;5.70;99.90;;;;;;5002673;28;20235;-70
2021/12/05 14:42:09;;;;;;;5.75;5.28;;;5.70;99.90;;;;;;5024238;28;20233;-69
2021/12/05 14:44:37;;;;;;;6.47;5.88;;;5.80;99.90;;;;;;5020019;28;20342;-71
2021/12/05 14:47:07;;;;;;;8.80;7.47;;;5.80;99.90;;;;;;5006836;28;20532;-71
2021/12/05 14:49:38;;;;;;;8.27;7.45;;;5.60;99.90;;;;;;5003196;28;20231;-70
2021/12/05 14:52:10;;;;;;;7.30;6.57;;;5.50;99.90;;;;;;4995022;28;20590;-70
2021/12/05 14:54:40;;;;;;;6.10;5.60;;;5.30;99.90;;;;;;4997487;28;20224;-70
2021/12/05 14:57:13;;;;;;;5.85;5.25;;;5.20;99.90;;;;;;4995516;28;20220;-70
2021/12/05 14:59:41;;;;;;;6.65;6.05;;;5.10;99.90;;;;;;4995377;28;20232;-70
2021/12/05 15:02:10;;;;;;;4.90;4.40;;;5.20;99.90;;;;;;4993828;28;20232;-70
2021/12/05 15:04:39;;;;;;;4.50;4.10;;;5.20;99.90;;;;;;4994610;28;20236;-70
2021/12/05 15:07:06;;;;;;;4.32;4.03;;;5.20;99.90;;;;;;4997872;28;20243;-70
2021/12/05 15:09:36;;;;;;;4.72;4.32;;;5.10;99.90;;;;;;5000896;28;20477;-70
2021/12/05 15:12:08;;;;;;;4.07;3.67;;;5.00;99.90;;;;;;4996055;28;20227;-70
2021/12/05 15:14:37;;;;;;;4.45;4.15;;;5.00;99.90;;;;;;4993741;28;20234;-70
2021/12/05 15:17:09;;;;;;;4.18;3.88;;;5.00;99.90;;;;;;4994869;28;20619;-70
2021/12/05 15:19:41;;;;;;;5.05;4.65;;;4.90;99.90;;;;;;4994339;28;20224;-69
2021/12/05 15:22:09;;;;;;;4.70;4.35;;;4.90;99.90;;;;;;4997152;28;20260;-70
2021/12/05 15:24:37;;;;;;;4.35;4.05;;;4.90;99.90;;;;;;4993462;28;20228;-69
2021/12/05 15:27:12;;;;;;;4.03;3.75;;;4.90;99.90;;;;;;4994954;28;20466;-70
2021/12/05 15:29:44;;;;;;;4.10;3.80;;;4.80;99.90;;;;;;4992238;28;22034;-70
2021/12/05 15:32:17;;;;;;;3.55;3.25;;;4.70;99.90;;;;;;5010715;28;20702;-73
2021/12/05 15:34:44;;;;;;;3.30;3.10;;;4.70;99.90;;;;;;5001709;28;20220;-72
2021/12/05 15:37:13;;;;;;;3.75;3.45;;;4.60;99.90;;;;;;4970996;28;20232;-70
2021/12/05 15:39:43;;;;;;;3.17;2.90;;;4.50;99.90;;;;;;4992241;28;20224;-69
2021/12/05 15:42:22;;;;;;;3.25;3.05;;;4.50;99.90;;;;;;4994171;28;20247;-71
2021/12/05 15:44:51;;;;;;;3.00;2.80;;;4.50;99.90;;;;;;4991907;28;20232;-70
2021/12/05 15:47:20;;;;;;;3.10;2.90;;;4.40;99.90;;;;;;4997713;28;20307;-72
2021/12/05 15:49:54;;;;;;;3.40;3.20;;;4.40;99.90;;;;;;4994371;28;20228;-70
2021/12/05 15:52:24;;;;;;;3.17;2.97;;;4.40;99.90;;;;;;4992601;28;20247;-69
2021/12/05 15:54:52;;;;;;;2.95;2.75;;;4.40;99.90;;;;;;4994508;28;20235;-72
2021/12/05 15:57:30;;;;;;;3.45;3.25;;;4.40;99.90;;;;;;4994023;28;20296;-70
2021/12/05 15:59:58;;;;;;;3.28;3.08;;;4.40;99.90;;;;;;4994218;28;20524;-70
2021/12/05 16:02:26;;;;;;;3.78;3.45;;;4.50;99.90;;;;;;4992770;28;20666;-71
2021/12/05 16:04:53;;;;;;;3.30;3.10;;;4.50;99.90;;;;;;4993124;28;20706;-70
2021/12/05 16:07:27;;;;;;;3.58;3.30;;;4.50;99.90;;;;;;4993456;28;20235;-70
2021/12/05 16:10:09;;;;;;;3.45;3.25;;;4.50;99.90;;;;;;4993482;28;20219;-71
2021/12/05 16:12:40;;;;;;;3.13;2.92;;;4.50;99.90;;;;;;4991835;28;20240;-70
2021/12/05 16:15:08;;;;;;;3.67;3.47;;;4.40;99.90;;;;;;4994817;28;20223;-71
2021/12/05 16:17:36;;;;;;;3.53;3.22;;;4.40;99.90;;;;;;4990645;28;20216;-70
2021/12/05 16:20:23;;;;;;;3.13;2.83;;;4.40;99.90;;;;;;4992842;28;20220;-72
2021/12/05 16:23:18;;;;;;;3.05;2.85;;;4.40;99.90;;;;;;4991585;28;20750;-71
2021/12/05 16:26:09;;;;;;;3.95;3.60;;;4.30;99.90;;;;;;4991567;28;20231;-71
2021/12/05 16:28:41;;;;;;;3.22;3.03;;;4.30;99.90;;;;;;5006500;28;20235;-72
2021/12/05 16:31:15;;;;;;;3.55;3.10;;;4.30;99.90;;;;;;4994356;28;20438;-72
2021/12/05 16:33:45;;;;;;;7.38;5.43;;;4.40;99.90;;;;;;4990901;28;20249;-71
2021/12/05 16:36:12;;;;;;;7.28;5.88;;;4.40;99.90;;;;;;4994239;28;20236;-73
2021/12/05 16:38:42;;;;;;;9.88;7.07;;;4.40;99.90;;;;;;4993602;28;20239;-69
2021/12/05 16:41:14;;;;;;;28.00;14.68;;;4.40;99.90;;;;;;5001009;28;20885;-70
2021/12/05 16:43:56;;;;;;;23.27;11.73;;;4.40;99.90;;;;;;4993620;28;20228;-71
2021/12/05 16:46:27;;;;;;;22.05;10.25;;;4.40;99.90;;;;;;4987601;28;20609;-70
2021/12/05 16:48:56;;;;;;;11.60;7.47;;;4.40;99.90;;;;;;4986442;28;20346;-72
2021/12/05 16:51:27;;;;;;;11.27;7.07;;;4.30;99.90;;;;;;4991109;28;20650;-70
2021/12/05 16:54:02;;;;;;;9.40;6.32;;;4.30;99.90;;;;;;4970508;28;20223;-71
2021/12/05 16:56:43;;;;;;;8.27;6.43;;;4.30;99.90;;;;;;4970072;28;20219;-69
2021/12/05 16:59:15;;;;;;;10.00;7.47;;;4.20;99.90;;;;;;4992416;28;20235;-71
2021/12/05 17:01:43;;;;;;;10.85;8.68;;;4.20;99.90;;;;;;4987889;28;20238;-69
2021/12/05 17:04:12;;;;;;;12.93;9.40;;;4.20;99.90;;;;;;4970867;28;20246;-72
2021/12/05 17:06:55;;;;;;;12.93;9.70;;;4.20;99.90;;;;;;4994055;28;20302;-71
2021/12/05 17:09:22;;;;;;;10.23;8.80;;;4.10;99.90;;;;;;4998511;28;20218;-69
2021/12/05 17:11:50;;;;;;;8.95;7.90;;;4.10;99.90;;;;;;4992712;28;20240;-71
2021/12/05 17:14:26;;;;;;;7.05;6.35;;;4.00;99.90;;;;;;5005840;28;20263;-72
2021/12/05 17:16:55;;;;;;;5.75;5.15;;;4.00;99.90;;;;;;4992088;28;20297;-72
2021/12/05 17:19:29;;;;;;;5.25;4.75;;;4.00;99.90;;;;;;4994939;28;20736;-71
2021/12/05 17:21:57;;;;;;;4.55;4.15;;;4.00;99.90;;;;;;4991935;28;20224;-70
2021/12/05 17:24:26;;;;;;;5.13;4.70;;;4.00;99.90;;;;;;5003836;28;20235;-71